Time;durP1;ratioP1;P1;durP2;ratioP2;P2;SDS_P1;SDS_P2;PMS_P1;PMS_P2;Temp;Humidity;BMP_temperature;BMP_pressure;BME280_temperature;BME280_humidity;BME280_pressure;Samples;Min_cycle;Max_cycle;Signal;HPM_P1;HPM_P2
2023/05/15 00:01:28;;;;;;;36.33;22.50;;;;;;;;;;5055611;28;20502;-75
2023/05/15 00:03:54;;;;;;;37.50;23.35;;;;;;;;;;5052791;28;20487;-75
2023/05/15 00:06:20;;;;;;;38.42;23.70;;;;;;;;;;5060082;28;20469;-75
2023/05/15 00:08:46;;;;;;;43.22;26.52;;;;;;;;;;5072029;28;20055;-75
2023/05/15 00:11:12;;;;;;;44.80;26.33;;;;;;;;;;5070032;28;20055;-76
2023/05/15 00:13:38;;;;;;;42.78;25.80;;;;;;;;;;5068409;28;20041;-76
2023/05/15 00:16:08;;;;;;;40.85;25.60;;;;;;;;;;5055521;28;20049;-75
2023/05/15 00:18:34;;;;;;;39.38;25.35;;;;;;;;;;5035928;28;20067;-75
2023/05/15 00:21:00;;;;;;;34.03;22.67;;;;;;;;;;5054601;28;20040;-75
2023/05/15 00:23:26;;;;;;;33.33;21.60;;;;;;;;;;5054455;28;20132;-75
2023/05/15 00:25:52;;;;;;;38.25;23.95;;;;;;;;;;5052123;28;20049;-75
2023/05/15 00:28:18;;;;;;;33.92;22.02;;;;;;;;;;5053005;28;20037;-75
2023/05/15 00:30:44;;;;;;;33.65;22.15;;;;;;;;;;5055839;28;20490;-75
2023/05/15 00:33:10;;;;;;;34.22;23.60;;;;;;;;;;5057699;28;20060;-75
2023/05/15 00:35:36;;;;;;;37.58;24.55;;;;;;;;;;5038700;28;20631;-76
2023/05/15 00:38:02;;;;;;;35.47;23.70;;;;;;;;;;5063072;28;20117;-75
2023/05/15 00:40:29;;;;;;;39.83;25.40;;;;;;;;;;5057823;28;20548;-75
2023/05/15 00:42:55;;;;;;;33.85;23.33;;;;;;;;;;5052703;28;20395;-75
2023/05/15 00:45:21;;;;;;;30.00;20.48;;;;;;;;;;5052868;28;20048;-75
2023/05/15 00:47:47;;;;;;;32.55;21.45;;;;;;;;;;5070633;28;20052;-75
2023/05/15 00:50:14;;;;;;;32.78;20.35;;;;;;;;;;5067986;28;20041;-76
2023/05/15 00:52:40;;;;;;;31.10;20.08;;;;;;;;;;5053069;28;20059;-75
2023/05/15 00:55:07;;;;;;;30.90;20.48;;;;;;;;;;5053115;28;20495;-75
2023/05/15 00:57:33;;;;;;;30.10;19.02;;;;;;;;;;5052554;28;20123;-76
2023/05/15 01:00:01;;;;;;;32.15;19.52;;;;;;;;;;5052981;28;20147;-75
2023/05/15 01:02:27;;;;;;;30.60;21.35;;;;;;;;;;5036525;28;20040;-75
2023/05/15 01:04:53;;;;;;;30.25;20.35;;;;;;;;;;5056417;28;20045;-75
2023/05/15 01:07:19;;;;;;;30.35;21.50;;;;;;;;;;5048944;28;20064;-75
2023/05/15 01:09:46;;;;;;;35.58;22.25;;;;;;;;;;5058465;28;20049;-75
2023/05/15 01:12:15;;;;;;;32.00;20.92;;;;;;;;;;5062634;28;20471;-75
2023/05/15 01:14:41;;;;;;;33.85;24.20;;;;;;;;;;5020423;28;20178;-75
2023/05/15 01:17:07;;;;;;;35.70;23.02;;;;;;;;;;5029569;28;20068;-75
2023/05/15 01:19:34;;;;;;;33.40;22.10;;;;;;;;;;5037607;28;20499;-76
2023/05/15 01:22:36;;;;;;;45.08;27.02;;;;;;;;;;5047490;28;20583;-75
2023/05/15 01:25:02;;;;;;;45.10;27.63;;;;;;;;;;5033411;28;20129;-75
2023/05/15 01:27:28;;;;;;;46.40;27.90;;;;;;;;;;5033345;28;20085;-75
2023/05/15 01:30:12;;;;;;;43.33;28.02;;;;;;;;;;5013107;28;20156;-75
2023/05/15 01:32:41;;;;;;;48.75;29.10;;;;;;;;;;5013571;28;20065;-76
2023/05/15 01:35:10;;;;;;;46.85;28.48;;;;;;;;;;4988038;28;20045;-75
2023/05/15 01:37:38;;;;;;;48.90;30.30;;;;;;;;;;5033786;28;20124;-75
2023/05/15 01:40:06;;;;;;;47.10;28.25;;;;;;;;;;5017573;28;20058;-75
2023/05/15 01:42:36;;;;;;;52.13;28.63;;;;;;;;;;5015491;28;20041;-76
2023/05/15 01:45:06;;;;;;;40.17;27.10;;;;;;;;;;5033163;28;20404;-75
2023/05/15 01:47:37;;;;;;;40.35;27.48;;;;;;;;;;5019464;28;20081;-75
2023/05/15 01:50:04;;;;;;;41.75;27.05;;;;;;;;;;5026857;28;20045;-75
2023/05/15 01:52:32;;;;;;;37.10;25.70;;;;;;;;;;5014795;28;20136;-76
2023/05/15 01:54:59;;;;;;;37.13;24.40;;;;;;;;;;5033168;28;20041;-75
2023/05/15 01:57:27;;;;;;;36.17;24.23;;;;;;;;;;5015477;28;20375;-76
2023/05/15 01:59:54;;;;;;;38.95;24.58;;;;;;;;;;5066162;28;20048;-76
2023/05/15 02:02:21;;;;;;;37.30;23.17;;;;;;;;;;5067247;28;20128;-75
2023/05/15 02:04:48;;;;;;;36.38;25.13;;;;;;;;;;5067054;28;20049;-75
2023/05/15 02:07:15;;;;;;;36.95;23.88;;;;;;;;;;5071064;28;20051;-76
2023/05/15 02:09:42;;;;;;;30.58;20.95;;;;;;;;;;5057157;28;20048;-75
2023/05/15 02:12:08;;;;;;;30.38;20.95;;;;;;;;;;5071243;28;20504;-75
2023/05/15 02:14:35;;;;;;;26.52;19.05;;;;;;;;;;5068486;28;20079;-76
2023/05/15 02:17:01;;;;;;;29.33;20.48;;;;;;;;;;5066220;28;20163;-75
2023/05/15 02:19:27;;;;;;;29.08;21.00;;;;;;;;;;5072584;28;20083;-76
2023/05/15 02:21:53;;;;;;;22.05;16.38;;;;;;;;;;5061440;28;20049;-75
2023/05/15 02:24:19;;;;;;;25.50;16.80;;;;;;;;;;5051741;28;20071;-75
2023/05/15 02:27:03;;;;;;;22.67;16.85;;;;;;;;;;5065794;28;20487;-75
2023/05/15 02:29:48;;;;;;;23.65;17.13;;;;;;;;;;5055067;28;20041;-75
2023/05/15 02:32:33;;;;;;;24.38;17.15;;;;;;;;;;5055196;28;20037;-75
2023/05/15 02:35:02;;;;;;;23.92;16.95;;;;;;;;;;5073946;28;20076;-75
2023/05/15 02:37:30;;;;;;;24.67;17.25;;;;;;;;;;5067729;28;20072;-76
2023/05/15 02:39:58;;;;;;;26.40;18.83;;;;;;;;;;5057178;28;20386;-76
2023/05/15 02:42:26;;;;;;;26.05;18.92;;;;;;;;;;5064231;28;20052;-75
2023/05/15 02:44:53;;;;;;;24.05;18.63;;;;;;;;;;5054608;28;20128;-75
2023/05/15 02:47:20;;;;;;;25.30;17.85;;;;;;;;;;5041788;28;20059;-75
2023/05/15 02:49:46;;;;;;;21.98;17.55;;;;;;;;;;5054569;28;20495;-76
2023/05/15 02:52:13;;;;;;;24.02;17.92;;;;;;;;;;5036972;28;20091;-75
2023/05/15 02:54:39;;;;;;;23.15;17.00;;;;;;;;;;5054386;28;20049;-75
2023/05/15 02:57:06;;;;;;;23.10;17.45;;;;;;;;;;5051084;28;20044;-76
2023/05/15 02:59:33;;;;;;;21.95;17.05;;;;;;;;;;5056611;28;20049;-75
2023/05/15 03:01:59;;;;;;;23.27;18.02;;;;;;;;;;5069460;28;20044;-75
2023/05/15 03:04:25;;;;;;;22.63;16.98;;;;;;;;;;5070903;28;20085;-75
2023/05/15 03:06:51;;;;;;;20.83;16.45;;;;;;;;;;5045403;28;20118;-76
2023/05/15 03:09:17;;;;;;;23.80;17.55;;;;;;;;;;5047689;28;20447;-75
2023/05/15 03:11:43;;;;;;;21.42;16.10;;;;;;;;;;5067321;28;20513;-75
2023/05/15 03:14:09;;;;;;;20.65;16.25;;;;;;;;;;5072941;28;20047;-75
2023/05/15 03:16:37;;;;;;;21.92;16.45;;;;;;;;;;5057766;28;20102;-75
2023/05/15 03:19:03;;;;;;;20.90;15.77;;;;;;;;;;5065312;28;20128;-76
2023/05/15 03:21:29;;;;;;;21.98;16.80;;;;;;;;;;5042226;28;20057;-75
2023/05/15 03:23:55;;;;;;;23.90;17.80;;;;;;;;;;5069839;28;20044;-75
2023/05/15 03:26:22;;;;;;;24.17;18.35;;;;;;;;;;5053961;28;20041;-75
2023/05/15 03:28:48;;;;;;;25.15;17.38;;;;;;;;;;5054724;28;20132;-75
2023/05/15 03:31:14;;;;;;;24.25;17.60;;;;;;;;;;5050836;28;20052;-75
2023/05/15 03:33:40;;;;;;;25.20;18.48;;;;;;;;;;5059380;28;20044;-75
2023/05/15 03:36:06;;;;;;;26.35;18.95;;;;;;;;;;5073232;28;20479;-76
2023/05/15 03:38:32;;;;;;;23.58;18.42;;;;;;;;;;5073132;28;20391;-74
2023/05/15 03:40:58;;;;;;;27.92;18.95;;;;;;;;;;5072328;28;20040;-75
2023/05/15 03:43:24;;;;;;;25.13;18.83;;;;;;;;;;5072544;28;20042;-75
2023/05/15 03:45:51;;;;;;;29.42;21.98;;;;;;;;;;5059958;28;20040;-74
2023/05/15 03:48:17;;;;;;;30.80;21.98;;;;;;;;;;5063523;28;20036;-75
2023/05/15 03:50:43;;;;;;;32.78;23.88;;;;;;;;;;5057132;28;20041;-75
2023/05/15 03:53:09;;;;;;;31.33;22.65;;;;;;;;;;5053438;28;20120;-75
2023/05/15 03:55:35;;;;;;;31.08;20.92;;;;;;;;;;5067626;28;20044;-75
2023/05/15 03:58:02;;;;;;;24.83;16.23;;;;;;;;;;5035529;28;20045;-75
2023/05/15 04:00:28;;;;;;;24.88;18.27;;;;;;;;;;5061247;28;20045;-75
2023/05/15 04:02:54;;;;;;;25.15;17.88;;;;;;;;;;5061445;28;20384;-75
2023/05/15 04:05:21;;;;;;;21.80;16.02;;;;;;;;;;5058199;28;20422;-75
2023/05/15 04:07:47;;;;;;;23.20;16.88;;;;;;;;;;5053005;28;20052;-75
2023/05/15 04:10:13;;;;;;;28.88;18.70;;;;;;;;;;5053517;28;20072;-75
2023/05/15 04:12:39;;;;;;;25.40;19.25;;;;;;;;;;5062611;28;20045;-75
2023/05/15 04:15:17;;;;;;;25.63;18.83;;;;;;;;;;5067620;28;20041;-76
2023/05/15 04:17:45;;;;;;;26.25;18.90;;;;;;;;;;5052843;28;20106;-75
2023/05/15 04:20:11;;;;;;;25.52;19.85;;;;;;;;;;5056727;28;20544;-75
2023/05/15 04:22:37;;;;;;;25.75;19.63;;;;;;;;;;5053410;28;20411;-75
2023/05/15 04:25:04;;;;;;;22.65;18.35;;;;;;;;;;5024673;28;20383;-75
2023/05/15 04:27:30;;;;;;;25.13;19.63;;;;;;;;;;5053329;28;20102;-75
2023/05/15 04:29:56;;;;;;;26.67;19.00;;;;;;;;;;5053156;28;20160;-75
2023/05/15 04:32:22;;;;;;;26.10;19.65;;;;;;;;;;5050997;28;20052;-75
2023/05/15 04:34:48;;;;;;;25.42;19.73;;;;;;;;;;5042441;28;20402;-75
2023/05/15 04:37:14;;;;;;;26.40;19.80;;;;;;;;;;5052218;28;20398;-75
2023/05/15 04:39:40;;;;;;;22.30;17.80;;;;;;;;;;5038443;28;20044;-75
2023/05/15 04:42:06;;;;;;;26.92;19.80;;;;;;;;;;5054870;28;20044;-75
2023/05/15 04:44:32;;;;;;;28.35;21.20;;;;;;;;;;5072691;28;20101;-75
2023/05/15 04:46:59;;;;;;;28.23;23.33;;;;;;;;;;5053840;28;20082;-75
2023/05/15 04:49:25;;;;;;;32.03;24.40;;;;;;;;;;5073022;28;20048;-75
2023/05/15 04:51:51;;;;;;;33.72;24.38;;;;;;;;;;5070946;28;20043;-75
2023/05/15 04:54:17;;;;;;;34.80;24.42;;;;;;;;;;5071103;28;20119;-75
2023/05/15 04:56:44;;;;;;;34.95;24.08;;;;;;;;;;5046827;28;20487;-75
2023/05/15 04:59:12;;;;;;;33.65;24.55;;;;;;;;;;5021872;28;20084;-75
2023/05/15 05:01:38;;;;;;;30.40;23.67;;;;;;;;;;5038742;28;20049;-75
2023/05/15 05:04:04;;;;;;;32.50;23.40;;;;;;;;;;5040469;28;20045;-75
2023/05/15 05:06:30;;;;;;;33.92;26.35;;;;;;;;;;5059603;28;20472;-75
2023/05/15 05:08:57;;;;;;;33.33;25.75;;;;;;;;;;5067929;28;20064;-75
2023/05/15 05:11:23;;;;;;;33.67;25.83;;;;;;;;;;5076405;28;20063;-75
2023/05/15 05:13:50;;;;;;;36.65;26.52;;;;;;;;;;5056606;28;20041;-74
2023/05/15 05:16:16;;;;;;;35.42;24.17;;;;;;;;;;5076549;28;20044;-74
2023/05/15 05:18:42;;;;;;;31.17;23.13;;;;;;;;;;5061289;28;20105;-74
2023/05/15 05:21:08;;;;;;;29.05;22.70;;;;;;;;;;5058465;28;20132;-74
2023/05/15 05:23:34;;;;;;;30.92;23.63;;;;;;;;;;5073401;28;20079;-74
2023/05/15 05:26:00;;;;;;;15.57;12.75;;;;;;;;;;5062670;28;20094;-74
2023/05/15 05:28:26;;;;;;;16.55;13.55;;;;;;;;;;5046375;28;20116;-74
2023/05/15 05:30:52;;;;;;;14.10;11.50;;;;;;;;;;5076020;28;20132;-74
2023/05/15 05:33:18;;;;;;;11.25;8.90;;;;;;;;;;5068133;28;20105;-74
2023/05/15 05:35:44;;;;;;;11.98;10.00;;;;;;;;;;5059812;28;20075;-74
2023/05/15 05:38:10;;;;;;;14.43;10.52;;;;;;;;;;5064206;28;20037;-75
2023/05/15 05:40:37;;;;;;;18.02;12.60;;;;;;;;;;5069886;28;20059;-77
2023/05/15 05:43:03;;;;;;;13.63;10.68;;;;;;;;;;5040146;28;20399;-75
2023/05/15 05:45:30;;;;;;;12.30;9.10;;;;;;;;;;5044595;28;20350;-75
2023/05/15 05:47:56;;;;;;;12.82;9.93;;;;;;;;;;5065630;28;20053;-76
2023/05/15 05:50:22;;;;;;;13.48;9.73;;;;;;;;;;5066535;28;20043;-76
2023/05/15 05:52:48;;;;;;;9.40;8.45;;;;;;;;;;5048097;28;20048;-75
2023/05/15 05:55:14;;;;;;;10.48;8.40;;;;;;;;;;5056161;28;20052;-76
2023/05/15 05:57:41;;;;;;;13.07;10.18;;;;;;;;;;5056356;28;20127;-78
2023/05/15 06:00:08;;;;;;;13.30;10.15;;;;;;;;;;5060269;28;20528;-76
2023/05/15 06:02:35;;;;;;;12.32;10.30;;;;;;;;;;5040435;28;20162;-75
2023/05/15 06:05:01;;;;;;;14.48;10.95;;;;;;;;;;5059796;28;20078;-75
2023/05/15 06:07:27;;;;;;;12.57;10.55;;;;;;;;;;5070127;28;20041;-75
2023/05/15 06:09:53;;;;;;;16.80;11.63;;;;;;;;;;5057164;28;20053;-75
2023/05/15 06:12:20;;;;;;;13.93;10.63;;;;;;;;;;5060690;28;20052;-75
2023/05/15 06:14:46;;;;;;;9.18;8.23;;;;;;;;;;5055959;28;20056;-75
2023/05/15 06:17:12;;;;;;;15.90;12.57;;;;;;;;;;5031875;28;20040;-75
2023/05/15 06:19:38;;;;;;;10.60;8.20;;;;;;;;;;5036663;28;20079;-75
2023/05/15 06:22:05;;;;;;;16.63;12.65;;;;;;;;;;5036559;28;20071;-75
2023/05/15 06:24:31;;;;;;;10.60;8.93;;;;;;;;;;5046068;28;20483;-76
2023/05/15 06:26:57;;;;;;;12.85;11.30;;;;;;;;;;5075184;28;20045;-75
2023/05/15 06:29:23;;;;;;;9.50;7.30;;;;;;;;;;5057039;28;20037;-75
2023/05/15 06:31:49;;;;;;;11.27;9.15;;;;;;;;;;5056529;28;20075;-75
2023/05/15 06:34:15;;;;;;;14.68;11.30;;;;;;;;;;5037136;28;20049;-75
2023/05/15 06:36:41;;;;;;;9.60;8.25;;;;;;;;;;5063218;28;20360;-75
2023/05/15 06:39:09;;;;;;;11.65;10.23;;;;;;;;;;5039116;28;20052;-75
2023/05/15 06:41:36;;;;;;;9.57;7.95;;;;;;;;;;5059898;28;20451;-75
2023/05/15 06:44:02;;;;;;;11.48;9.43;;;;;;;;;;5058975;28;20044;-75
2023/05/15 06:46:28;;;;;;;9.27;7.70;;;;;;;;;;5072754;28;20048;-75
2023/05/15 06:48:54;;;;;;;10.55;9.45;;;;;;;;;;5072957;28;20037;-75
2023/05/15 06:51:20;;;;;;;9.15;8.25;;;;;;;;;;5054437;28;20049;-75
2023/05/15 06:53:46;;;;;;;8.68;7.20;;;;;;;;;;5055531;28;20051;-75
2023/05/15 06:56:12;;;;;;;9.30;7.30;;;;;;;;;;5074413;28;20040;-75
2023/05/15 06:58:38;;;;;;;8.55;7.75;;;;;;;;;;5074970;28;20110;-75
2023/05/15 07:01:05;;;;;;;8.73;7.82;;;;;;;;;;5056085;28;20040;-75
2023/05/15 07:03:32;;;;;;;8.02;7.22;;;;;;;;;;5041970;28;20071;-75
2023/05/15 07:05:58;;;;;;;8.30;7.50;;;;;;;;;;5035223;28;20052;-75
2023/05/15 07:08:24;;;;;;;10.85;8.18;;;;;;;;;;5053639;28;20057;-76
2023/05/15 07:10:50;;;;;;;11.00;8.38;;;;;;;;;;5041291;28;20044;-75
2023/05/15 07:13:17;;;;;;;11.90;9.73;;;;;;;;;;5074381;28;20052;-75
2023/05/15 07:15:49;;;;;;;12.40;11.07;;;;;;;;;;5071386;28;20048;-76
2023/05/15 07:18:18;;;;;;;10.85;8.98;;;;;;;;;;5070497;28;20064;-76
2023/05/15 07:20:44;;;;;;;12.93;11.63;;;;;;;;;;5037456;28;20391;-76
2023/05/15 07:23:10;;;;;;;11.55;10.02;;;;;;;;;;5064247;28;20049;-76
2023/05/15 07:25:36;;;;;;;12.27;8.82;;;;;;;;;;5057282;28;20432;-75
2023/05/15 07:28:02;;;;;;;10.73;9.68;;;;;;;;;;5052341;28;20049;-76
2023/05/15 07:30:28;;;;;;;8.63;6.82;;;;;;;;;;5045594;28;20068;-76
2023/05/15 07:32:54;;;;;;;8.40;7.25;;;;;;;;;;5055199;28;20098;-79
2023/05/15 07:35:20;;;;;;;9.38;8.25;;;;;;;;;;5051152;28;20039;-81
2023/05/15 07:37:47;;;;;;;7.68;6.93;;;;;;;;;;5053270;28;20048;-76
2023/05/15 07:40:14;;;;;;;10.10;7.85;;;;;;;;;;5035733;28;20059;-76
2023/05/15 07:42:40;;;;;;;11.23;8.63;;;;;;;;;;5052884;28;20052;-82
2023/05/15 07:45:06;;;;;;;13.43;10.45;;;;;;;;;;5038199;28;20161;-76
2023/05/15 07:47:34;;;;;;;11.75;9.35;;;;;;;;;;5037516;28;20048;-76
2023/05/15 07:50:00;;;;;;;10.63;9.45;;;;;;;;;;5053377;28;20121;-75
2023/05/15 07:52:26;;;;;;;12.02;10.05;;;;;;;;;;5057083;28;20110;-76
2023/05/15 07:54:52;;;;;;;12.90;10.18;;;;;;;;;;5069421;28;20071;-76
2023/05/15 07:57:18;;;;;;;11.48;10.32;;;;;;;;;;5068498;28;20356;-76
2023/05/15 07:59:44;;;;;;;12.32;10.23;;;;;;;;;;5052341;28;20099;-76
2023/05/15 08:02:10;;;;;;;11.23;8.60;;;;;;;;;;5053794;28;20040;-76
2023/05/15 08:04:36;;;;;;;10.27;8.73;;;;;;;;;;5069558;28;20110;-76
2023/05/15 08:07:02;;;;;;;13.45;10.63;;;;;;;;;;5053226;28;20051;-76
2023/05/15 08:09:29;;;;;;;11.82;10.63;;;;;;;;;;5050303;28;20052;-76
2023/05/15 08:11:56;;;;;;;13.43;10.98;;;;;;;;;;5046410;28;20459;-76
2023/05/15 08:14:22;;;;;;;11.52;10.32;;;;;;;;;;5044840;28;21016;-76
2023/05/15 08:16:50;;;;;;;11.20;9.45;;;;;;;;;;5054398;28;20048;-77
2023/05/15 08:19:16;;;;;;;10.73;9.63;;;;;;;;;;5044518;28;20053;-77
2023/05/15 08:21:42;;;;;;;12.30;9.70;;;;;;;;;;5052164;28;20040;-76
2023/05/15 08:24:08;;;;;;;11.82;10.63;;;;;;;;;;5074141;28;20082;-76
2023/05/15 08:26:35;;;;;;;12.93;9.48;;;;;;;;;;5063437;28;20051;-77
2023/05/15 08:29:01;;;;;;;14.00;9.90;;;;;;;;;;5041960;28;20175;-77
2023/05/15 08:31:27;;;;;;;12.88;10.30;;;;;;;;;;5035262;28;20360;-77
2023/05/15 08:33:53;;;;;;;10.82;9.60;;;;;;;;;;5049516;28;20479;-76
2023/05/15 08:36:20;;;;;;;11.63;9.73;;;;;;;;;;5072645;28;20047;-76
2023/05/15 08:38:46;;;;;;;11.38;9.82;;;;;;;;;;5061826;28;20048;-76
2023/05/15 08:41:19;;;;;;;11.80;10.25;;;;;;;;;;5052620;28;20047;-76
2023/05/15 08:43:45;;;;;;;11.77;10.10;;;;;;;;;;5052489;28;20128;-76
2023/05/15 08:46:11;;;;;;;10.38;9.38;;;;;;;;;;5044508;28;20041;-76
2023/05/15 08:48:38;;;;;;;11.05;9.95;;;;;;;;;;5054477;28;20048;-76
2023/05/15 08:51:09;;;;;;;10.52;9.52;;;;;;;;;;5053473;28;20321;-76
2023/05/15 08:53:35;;;;;;;10.70;9.55;;;;;;;;;;5055086;28;20041;-76
2023/05/15 08:56:01;;;;;;;10.90;9.85;;;;;;;;;;5044834;28;20455;-76
2023/05/15 08:58:27;;;;;;;13.15;11.82;;;;;;;;;;5065162;28;20052;-77
2023/05/15 09:00:53;;;;;;;15.02;12.25;;;;;;;;;;5054015;28;20048;-76
2023/05/15 09:03:22;;;;;;;12.80;11.10;;;;;;;;;;5050885;28;20045;-76
2023/05/15 09:05:50;;;;;;;13.00;11.57;;;;;;;;;;5067458;28;20060;-76
2023/05/15 09:08:17;;;;;;;15.40;13.30;;;;;;;;;;5047643;28;20464;-76
2023/05/15 09:10:44;;;;;;;12.43;11.18;;;;;;;;;;5066410;28;20059;-76
2023/05/15 09:13:11;;;;;;;13.77;12.32;;;;;;;;;;5064135;28;20037;-76
2023/05/15 09:15:37;;;;;;;11.70;10.48;;;;;;;;;;5041495;28;20041;-76
2023/05/15 09:18:04;;;;;;;11.40;10.23;;;;;;;;;;5052047;28;20513;-77
2023/05/15 09:20:34;;;;;;;9.95;8.93;;;;;;;;;;5034221;28;20055;-76
2023/05/15 09:23:02;;;;;;;11.75;9.40;;;;;;;;;;5061690;28;20045;-75
2023/05/15 09:25:38;;;;;;;11.13;9.77;;;;;;;;;;5070429;28;20041;-76
2023/05/15 09:28:05;;;;;;;9.15;8.25;;;;;;;;;;5070801;28;20090;-77
2023/05/15 09:30:33;;;;;;;10.90;9.68;;;;;;;;;;5056246;28;20045;-75
2023/05/15 09:33:02;;;;;;;10.73;9.68;;;;;;;;;;5059434;28;20076;-76
2023/05/15 09:35:31;;;;;;;9.80;8.07;;;;;;;;;;5061040;28;20044;-76
2023/05/15 09:38:00;;;;;;;9.95;8.95;;;;;;;;;;5048616;28;20512;-76
2023/05/15 09:40:33;;;;;;;8.57;7.65;;;;;;;;;;5050637;28;20422;-76
2023/05/15 09:42:59;;;;;;;10.30;9.02;;;;;;;;;;5041900;28;20087;-78
2023/05/15 09:45:28;;;;;;;9.23;8.25;;;;;;;;;;5070202;28;20036;-81
2023/05/15 09:47:56;;;;;;;10.85;8.93;;;;;;;;;;5058448;28;21441;-75
2023/05/15 09:50:23;;;;;;;9.20;8.25;;;;;;;;;;5064128;28;20045;-75
2023/05/15 09:52:49;;;;;;;9.68;8.70;;;;;;;;;;5057485;28;20052;-80
2023/05/15 09:55:16;;;;;;;10.13;8.77;;;;;;;;;;5039750;28;20092;-76
2023/05/15 09:57:45;;;;;;;11.23;8.30;;;;;;;;;;5061640;28;20075;-76
2023/05/15 10:00:11;;;;;;;9.75;8.65;;;;;;;;;;5063912;28;20037;-76
2023/05/15 10:02:40;;;;;;;9.50;7.57;;;;;;;;;;5058844;28;20040;-76
2023/05/15 10:05:06;;;;;;;9.75;8.75;;;;;;;;;;5073719;28;20154;-76
2023/05/15 10:07:35;;;;;;;11.55;9.20;;;;;;;;;;5070377;28;20043;-76
2023/05/15 10:10:02;;;;;;;11.98;9.30;;;;;;;;;;5062016;28;20098;-76
2023/05/15 10:12:30;;;;;;;9.40;8.48;;;;;;;;;;5055697;28;20128;-76
2023/05/15 10:14:57;;;;;;;11.45;8.35;;;;;;;;;;5055712;28;20545;-76
2023/05/15 10:17:24;;;;;;;11.18;8.13;;;;;;;;;;5059374;28;20068;-76
2023/05/15 10:19:50;;;;;;;8.82;7.93;;;;;;;;;;5063385;28;20045;-77
2023/05/15 10:22:19;;;;;;;10.45;8.98;;;;;;;;;;5055202;28;20037;-76
2023/05/15 10:24:46;;;;;;;9.40;8.40;;;;;;;;;;5054998;28;20084;-76
2023/05/15 10:27:13;;;;;;;10.70;9.60;;;;;;;;;;5041758;28;20388;-76
2023/05/15 10:29:39;;;;;;;9.90;8.90;;;;;;;;;;5036922;28;20471;-77
2023/05/15 10:32:06;;;;;;;9.23;8.32;;;;;;;;;;5037315;28;20055;-76
2023/05/15 10:34:32;;;;;;;11.15;9.73;;;;;;;;;;5053615;28;20040;-76
2023/05/15 10:36:59;;;;;;;10.32;8.65;;;;;;;;;;5044267;28;20036;-77
2023/05/15 10:39:26;;;;;;;11.40;8.70;;;;;;;;;;5069545;28;20465;-76
2023/05/15 10:41:53;;;;;;;9.82;8.85;;;;;;;;;;5074927;28;20040;-76
2023/05/15 10:44:20;;;;;;;10.07;8.98;;;;;;;;;;5066321;28;20041;-77
2023/05/15 10:46:46;;;;;;;10.63;8.82;;;;;;;;;;5060479;28;20098;-76
2023/05/15 10:49:12;;;;;;;9.00;8.13;;;;;;;;;;5073928;28;20044;-76
2023/05/15 10:51:39;;;;;;;9.77;8.35;;;;;;;;;;5074697;28;20049;-76
2023/05/15 10:54:05;;;;;;;10.68;9.60;;;;;;;;;;5074420;28;20044;-77
2023/05/15 10:56:36;;;;;;;9.95;8.77;;;;;;;;;;5054297;28;20044;-77
2023/05/15 10:59:06;;;;;;;9.70;7.22;;;;;;;;;;5054479;28;20045;-77
2023/05/15 11:01:34;;;;;;;8.90;7.97;;;;;;;;;;5060470;28;20040;-77
2023/05/15 11:04:07;;;;;;;9.60;7.70;;;;;;;;;;5074967;28;20044;-76
2023/05/15 11:06:34;;;;;;;13.25;8.77;;;;;;;;;;5074459;28;20115;-77
2023/05/15 11:09:19;;;;;;;10.43;9.05;;;;;;;;;;5056258;28;20501;-77
2023/05/15 11:11:56;;;;;;;10.15;8.75;;;;;;;;;;5048676;28;20490;-77
2023/05/15 11:14:29;;;;;;;9.90;8.63;;;;;;;;;;5054863;28;20514;-76
2023/05/15 11:16:56;;;;;;;9.80;8.75;;;;;;;;;;5047350;28;20045;-77
2023/05/15 11:19:25;;;;;;;11.40;9.38;;;;;;;;;;5042457;28;20052;-76
2023/05/15 11:21:58;;;;;;;9.38;8.48;;;;;;;;;;5036499;28;20037;-77
2023/05/15 11:24:28;;;;;;;11.27;8.10;;;;;;;;;;5054355;28;20371;-77
2023/05/15 11:27:01;;;;;;;10.25;9.18;;;;;;;;;;5073787;28;20052;-77
2023/05/15 11:29:27;;;;;;;9.55;8.27;;;;;;;;;;5052977;28;20037;-77
2023/05/15 11:31:53;;;;;;;11.10;10.00;;;;;;;;;;5060798;28;20471;-77
2023/05/15 11:34:30;;;;;;;10.82;9.50;;;;;;;;;;5069323;28;20111;-77
2023/05/15 11:36:58;;;;;;;8.85;7.55;;;;;;;;;;5055682;28;20115;-77
2023/05/15 11:39:25;;;;;;;8.77;7.75;;;;;;;;;;5037497;28;20049;-77
2023/05/15 11:41:51;;;;;;;10.65;9.32;;;;;;;;;;5052410;28;20037;-77
2023/05/15 11:44:24;;;;;;;8.98;7.70;;;;;;;;;;5054353;28;20036;-77
2023/05/15 11:46:50;;;;;;;11.45;8.68;;;;;;;;;;5061367;28;20052;-77
2023/05/15 11:49:19;;;;;;;8.90;7.60;;;;;;;;;;5055670;28;20049;-77
2023/05/15 11:51:47;;;;;;;10.10;9.07;;;;;;;;;;5055783;28;20052;-77
2023/05/15 11:54:14;;;;;;;11.75;9.10;;;;;;;;;;5070570;28;20076;-77
2023/05/15 11:56:44;;;;;;;9.55;7.47;;;;;;;;;;5052922;28;20055;-76
2023/05/15 11:59:15;;;;;;;10.10;9.10;;;;;;;;;;5073541;28;20135;-77
2023/05/15 12:01:42;;;;;;;8.77;7.18;;;;;;;;;;5049751;28;20045;-76
2023/05/15 12:04:15;;;;;;;8.20;7.32;;;;;;;;;;5035840;28;20124;-77
2023/05/15 12:06:43;;;;;;;8.57;7.78;;;;;;;;;;5054097;28;20129;-76
2023/05/15 12:09:17;;;;;;;9.00;8.05;;;;;;;;;;5034537;28;20055;-77
2023/05/15 12:11:53;;;;;;;9.75;7.20;;;;;;;;;;5055125;28;20673;-78
2023/05/15 12:14:19;;;;;;;;;;;;;;;;;;5064910;28;20040;-77
2023/05/15 12:16:45;;;;;;;7.30;5.68;;;;;;;;;;5066285;28;20277;-77
2023/05/15 12:19:12;;;;;;;8.88;6.85;;;;;;;;;;5063290;28;20049;-77
2023/05/15 12:21:42;;;;;;;9.07;7.15;;;;;;;;;;5053221;28;20049;-77
2023/05/15 12:24:11;;;;;;;8.93;7.53;;;;;;;;;;5052910;28;20047;-77
2023/05/15 12:26:38;;;;;;;7.72;6.90;;;;;;;;;;5073194;28;20414;-77
2023/05/15 12:29:05;;;;;;;8.00;7.05;;;;;;;;;;5072625;28;20044;-78
2023/05/15 12:31:31;;;;;;;8.70;7.50;;;;;;;;;;5061232;28;20055;-76
2023/05/15 12:33:57;;;;;;;9.20;7.80;;;;;;;;;;5058494;28;20041;-82
2023/05/15 12:36:23;;;;;;;8.85;8.00;;;;;;;;;;5053397;28;20176;-76
2023/05/15 12:38:50;;;;;;;8.63;7.63;;;;;;;;;;5054041;28;20478;-76
2023/05/15 12:41:16;;;;;;;9.25;8.00;;;;;;;;;;5073142;28;20467;-77
2023/05/15 12:43:42;;;;;;;9.82;7.38;;;;;;;;;;5069956;28;20051;-76
2023/05/15 12:46:09;;;;;;;9.80;7.78;;;;;;;;;;5054122;28;20041;-76
2023/05/15 12:48:35;;;;;;;7.28;6.40;;;;;;;;;;5054310;28;20118;-75
2023/05/15 12:51:07;;;;;;;8.88;7.38;;;;;;;;;;5076680;28;20060;-75
2023/05/15 12:53:34;;;;;;;10.13;7.05;;;;;;;;;;5062660;28;20129;-76
2023/05/15 12:56:00;;;;;;;7.55;6.68;;;;;;;;;;5052817;28;20045;-76
2023/05/15 12:58:26;;;;;;;10.52;7.32;;;;;;;;;;5053024;28;20045;-77
2023/05/15 13:00:52;;;;;;;7.93;7.10;;;;;;;;;;5052246;28;20068;-76
2023/05/15 13:03:20;;;;;;;8.80;6.63;;;;;;;;;;5042692;28;20517;-75
2023/05/15 13:05:46;;;;;;;9.05;6.28;;;;;;;;;;5035298;28;20052;-76
2023/05/15 13:08:16;;;;;;;7.13;6.03;;;;;;;;;;5063216;28;20053;-76
2023/05/15 13:10:43;;;;;;;8.27;7.10;;;;;;;;;;5060178;28;20041;-75
2023/05/15 13:13:09;;;;;;;7.47;6.60;;;;;;;;;;5052149;28;20048;-75
2023/05/15 13:15:36;;;;;;;8.48;7.07;;;;;;;;;;5051107;28;20049;-75
2023/05/15 13:18:03;;;;;;;12.45;8.38;;;;;;;;;;5072539;28;20090;-75
2023/05/15 13:20:32;;;;;;;7.95;7.15;;;;;;;;;;5057020;28;20049;-76
2023/05/15 13:22:59;;;;;;;9.13;8.05;;;;;;;;;;5074196;28;20119;-76
2023/05/15 13:25:25;;;;;;;10.05;7.60;;;;;;;;;;5074070;28;20045;-76
2023/05/15 13:34:35;;;;;;;7.40;6.15;;;;;;;;;;5076611;28;20082;-75
2023/05/15 13:37:01;;;;;;;8.98;7.57;;;;;;;;;;5057846;28;20052;-77
2023/05/15 13:39:27;;;;;;;7.72;6.60;;;;;;;;;;5065398;28;20052;-83
2023/05/15 13:41:53;;;;;;;8.60;7.07;;;;;;;;;;5028331;28;20076;-76
2023/05/15 13:44:19;;;;;;;7.70;6.32;;;;;;;;;;5068635;28;20048;-76
2023/05/15 13:46:45;;;;;;;8.35;7.43;;;;;;;;;;5031203;28;20093;-77
2023/05/15 13:49:11;;;;;;;8.95;7.00;;;;;;;;;;5038835;28;20124;-77
2023/05/15 13:51:38;;;;;;;11.98;8.35;;;;;;;;;;5055752;28;20128;-77
2023/05/15 13:54:04;;;;;;;9.18;7.53;;;;;;;;;;5046070;28;20044;-77
2023/05/15 13:56:30;;;;;;;10.45;8.27;;;;;;;;;;5021496;28;20159;-77
2023/05/15 13:58:56;;;;;;;7.15;5.82;;;;;;;;;;5055644;28;20148;-77
2023/05/15 14:01:22;;;;;;;8.25;7.22;;;;;;;;;;5066596;28;20098;-77
2023/05/15 14:03:48;;;;;;;8.35;6.75;;;;;;;;;;5074803;28;20037;-77
2023/05/15 14:06:14;;;;;;;10.05;7.88;;;;;;;;;;5075697;28;20056;-77
2023/05/15 14:08:40;;;;;;;11.38;8.45;;;;;;;;;;5047261;28;20060;-77
2023/05/15 14:11:06;;;;;;;9.57;8.40;;;;;;;;;;5055917;28;20052;-77
2023/05/15 14:13:33;;;;;;;8.73;7.38;;;;;;;;;;5056017;28;20045;-77
2023/05/15 14:15:59;;;;;;;9.30;7.13;;;;;;;;;;5053614;28;20059;-77
2023/05/15 14:18:25;;;;;;;9.07;7.65;;;;;;;;;;5049821;28;20041;-77
2023/05/15 14:20:51;;;;;;;8.18;7.20;;;;;;;;;;5074817;28;20040;-77
2023/05/15 14:23:17;;;;;;;5.28;4.78;;;;;;;;;;5045833;28;20045;-77
2023/05/15 14:25:43;;;;;;;6.05;4.93;;;;;;;;;;5049518;28;20128;-79
2023/05/15 14:28:10;;;;;;;6.00;5.40;;;;;;;;;;5038481;28;20076;-77
2023/05/15 14:30:36;;;;;;;9.57;6.53;;;;;;;;;;5036224;28;20387;-76
2023/05/15 14:33:02;;;;;;;6.18;5.38;;;;;;;;;;5053605;28;20141;-77
2023/05/15 14:35:28;;;;;;;6.90;5.55;;;;;;;;;;5058333;28;20091;-77